Time;durP1;ratioP1;P1;durP2;ratioP2;P2;SDS_P1;SDS_P2;PMS_P1;PMS_P2;Temp;Humidity;BMP_temperature;BMP_pressure;BME280_temperature;BME280_humidity;BME280_pressure;Samples;Min_cycle;Max_cycle;Signal;HPM_P1;HPM_P2
2021/04/29 00:00:57;;;;;;;;;;;;;;;9.69;39.87;99949.11;1617040;87;20543;-73
2021/04/29 00:03:23;;;;;;;;;;;;;;;9.67;39.87;99944.43;1640322;86;20293;-73
2021/04/29 00:05:49;;;;;;;;;;;;;;;9.64;39.92;99941.92;1615330;87;20264;-73
2021/04/29 00:08:16;;;;;;;;;;;;;;;9.64;39.93;99943.20;1629489;87;20267;-73
2021/04/29 00:10:42;;;;;;;;;;;;;;;9.62;39.90;99946.27;1627927;87;20288;-73
2021/04/29 00:13:08;;;;;;;;;;;;;;;9.59;39.92;99947.63;1653806;86;20200;-73
2021/04/29 00:15:34;;;;;;;;;;;;;;;9.56;39.95;99939.51;1646744;85;20282;-73
2021/04/29 00:18:00;;;;;;;;;;;;;;;9.54;39.98;99945.59;1649062;85;20259;-73
2021/04/29 00:20:26;;;;;;;;;;;;;;;9.51;39.98;99941.78;1626688;85;20791;-73
2021/04/29 00:22:52;;;;;;;;;;;;;;;9.49;40.00;99938.39;1648561;86;20295;-73
2021/04/29 00:25:18;;;;;;;;;;;;;;;9.50;40.01;99940.09;1654941;85;20193;-73
2021/04/29 00:27:44;;;;;;;;;;;;;;;9.46;40.04;99938.45;1627024;86;20268;-73
2021/04/29 00:30:11;;;;;;;;;;;;;;;9.43;40.06;99932.07;1637921;86;20148;-73
2021/04/29 00:32:38;;;;;;;;;;;;;;;9.41;40.05;99928.67;1608117;87;20159;-73
2021/04/29 00:35:05;;;;;;;;;;;;;;;9.40;40.07;99924.40;1624672;87;20283;-73
2021/04/29 00:37:32;;;;;;;;;;;;;;;9.37;40.12;99928.34;1642396;86;20262;-73
2021/04/29 00:39:58;;;;;;;;;;;;;;;9.36;40.11;99926.20;1650543;85;20243;-73
2021/04/29 00:42:23;;;;;;;;;;;;;;;9.35;40.14;99926.27;1655743;85;20233;-73
2021/04/29 00:44:50;;;;;;;;;;;;;;;9.31;40.14;99923.34;1656312;85;20300;-73
2021/04/29 00:47:16;;;;;;;;;;;;;;;9.28;40.16;99922.97;1653192;85;20284;-73
2021/04/29 00:49:45;;;;;;;;;;;;;;;9.24;40.23;99921.34;1649198;85;20275;-73
2021/04/29 00:52:11;;;;;;;;;;;;;;;9.20;40.23;99917.13;1644254;85;20297;-73
2021/04/29 00:54:37;;;;;;;;;;;;;;;9.16;40.24;99912.91;1649760;85;20258;-73
2021/04/29 00:57:04;;;;;;;;;;;;;;;9.12;40.24;99916.44;1656324;85;20212;-73
2021/04/29 00:59:30;;;;;;;;;;;;;;;9.09;40.28;99914.77;1652703;85;20279;-73
2021/04/29 01:02:04;;;;;;;;;;;;;;;9.07;40.31;99922.13;1659169;85;20254;-73
2021/04/29 01:04:49;;;;;;;;;;;;;;;9.06;40.29;99923.01;1600883;86;20275;-73
2021/04/29 01:07:16;;;;;;;;;;;;;;;9.04;40.32;99920.47;1642363;85;20435;-73
2021/04/29 01:09:51;;;;;;;;;;;;;;;8.96;40.32;99916.75;1651812;85;20553;-73
2021/04/29 01:12:21;;;;;;;;;;;;;;;8.96;40.38;99913.33;1645681;85;20269;-73
2021/04/29 01:14:55;;;;;;;;;;;;;;;8.94;40.39;99921.09;1620239;86;20248;-73
2021/04/29 01:17:22;;;;;;;;;;;;;;;8.90;40.40;99909.58;1653857;85;20169;-73
2021/04/29 01:20:06;;;;;;;;;;;;;;;8.86;40.40;99914.39;1615137;86;20291;-73
2021/04/29 01:22:34;;;;;;;;;;;;;;;8.83;40.46;99914.05;1642308;85;20295;-73
2021/04/29 01:25:11;;;;;;;;;;;;;;;8.82;40.50;99913.64;1654954;85;20272;-73
2021/04/29 01:27:37;;;;;;;;;;;;;;;8.79;40.52;99916.71;1667420;85;20260;-73
2021/04/29 01:30:09;;;;;;;;;;;;;;;8.74;40.53;99914.22;1663996;85;20205;-73
2021/04/29 01:32:35;;;;;;;;;;;;;;;8.68;40.55;99907.05;1623366;86;20291;-73
2021/04/29 01:35:02;;;;;;;;;;;;;;;8.64;40.61;99913.99;1663264;85;20268;-73
2021/04/29 01:37:29;;;;;;;;;;;;;;;8.60;40.66;99905.91;1650459;85;20270;-73
2021/04/29 01:39:55;;;;;;;;;;;;;;;8.56;40.63;99913.29;1634741;85;20275;-73
2021/04/29 01:42:21;;;;;;;;;;;;;;;8.52;40.69;99909.92;1662740;85;20254;-73
2021/04/29 01:44:48;;;;;;;;;;;;;;;8.49;40.72;99915.13;1664359;85;20202;-73
2021/04/29 01:47:14;;;;;;;;;;;;;;;8.46;40.79;99906.17;1645094;85;20280;-73
2021/04/29 01:49:43;;;;;;;;;;;;;;;8.44;40.82;99903.21;1664108;85;20279;-73
2021/04/29 01:52:09;;;;;;;;;;;;;;;8.42;40.85;99903.23;1653361;85;20287;-73
2021/04/29 01:54:37;;;;;;;;;;;;;;;8.40;40.87;99905.43;1651758;85;20263;-72
2021/04/29 01:57:05;;;;;;;;;;;;;;;8.37;40.92;99901.19;1654356;85;20260;-73
2021/04/29 01:59:30;;;;;;;;;;;;;;;8.35;40.94;99905.52;1653113;85;20293;-73
2021/04/29 02:01:56;;;;;;;;;;;;;;;8.34;40.98;99905.11;1672287;85;20208;-72
2021/04/29 02:04:29;;;;;;;;;;;;;;;8.32;41.02;99899.09;1640163;85;20286;-73
2021/04/29 02:06:56;;;;;;;;;;;;;;;8.30;41.01;99894.45;1646986;85;20363;-73
2021/04/29 02:09:22;;;;;;;;;;;;;;;8.28;41.06;99899.63;1651375;85;20262;-73
2021/04/29 02:11:59;;;;;;;;;;;;;;;8.26;41.09;99891.08;1636301;85;20371;-73
2021/04/29 02:14:34;;;;;;;;;;;;;;;8.25;41.10;99896.25;1641278;85;20464;-73
2021/04/29 02:17:05;;;;;;;;;;;;;;;8.24;41.11;99891.98;1645088;85;20284;-73
2021/04/29 02:19:34;;;;;;;;;;;;;;;8.22;41.15;99894.58;1632182;87;20279;-72
2021/04/29 02:22:00;;;;;;;;;;;;;;;8.18;41.20;99888.23;1617664;87;20300;-73
2021/04/29 02:24:29;;;;;;;;;;;;;;;8.17;41.20;99889.10;1645813;85;20274;-73
2021/04/29 02:26:56;;;;;;;;;;;;;;;8.13;41.23;99886.17;1622928;87;20280;-73
2021/04/29 02:29:22;;;;;;;;;;;;;;;8.09;41.26;99883.23;1641570;85;20259;-73
2021/04/29 02:31:48;;;;;;;;;;;;;;;8.07;41.27;99883.27;1651714;85;20267;-73
2021/04/29 02:34:19;;;;;;;;;;;;;;;8.05;41.29;99882.88;1646368;85;20280;-72
2021/04/29 02:36:45;;;;;;;;;;;;;;;8.02;41.32;99881.64;1648772;85;20280;-73
2021/04/29 02:39:11;;;;;;;;;;;;;;;8.00;41.32;99880.38;1647305;85;20255;-73
2021/04/29 02:41:38;;;;;;;;;;;;;;;7.97;41.37;99877.42;1644072;85;20284;-73
2021/04/29 02:44:05;;;;;;;;;;;;;;;7.92;41.40;99872.79;1621645;87;20253;-73
2021/04/29 02:46:34;;;;;;;;;;;;;;;7.91;41.42;99871.53;1632171;85;20271;-72
2021/04/29 02:49:01;;;;;;;;;;;;;;;7.90;41.47;99874.55;1652122;85;20278;-73
2021/04/29 02:51:27;;;;;;;;;;;;;;;7.90;41.50;99871.97;1640622;85;20282;-72
2021/04/29 02:53:54;;;;;;;;;;;;;;;7.90;41.51;99869.39;1622372;87;20283;-72
2021/04/29 02:56:20;;;;;;;;;;;;;;;7.92;41.53;99870.66;1663826;85;20263;-73
2021/04/29 02:58:49;;;;;;;;;;;;;;;7.90;41.55;99868.11;1656813;84;20303;-72
2021/04/29 03:01:17;;;;;;;;;;;;;;;7.88;41.55;99859.56;1658955;84;20193;-73
2021/04/29 03:03:44;;;;;;;;;;;;;;;7.86;41.61;99866.45;1665159;84;20267;-73
2021/04/29 03:06:10;;;;;;;;;;;;;;;7.86;41.59;99865.61;1664461;85;20305;-73
2021/04/29 03:08:36;;;;;;;;;;;;;;;7.85;41.68;99863.47;1664271;84;20259;-72
2021/04/29 03:11:03;;;;;;;;;;;;;;;7.84;41.69;99860.48;1653635;86;20301;-72
2021/04/29 03:13:30;;;;;;;;;;;;;;;7.85;41.75;99860.05;1660154;84;20254;-72
2021/04/29 03:15:56;;;;;;;;;;;;;;;7.87;41.81;99865.58;1665268;84;20296;-73
2021/04/29 03:18:22;;;;;;;;;;;;;;;7.87;41.87;99859.59;1655802;84;20160;-73
2021/04/29 03:20:48;;;;;;;;;;;;;;;7.85;41.93;99862.63;1637890;87;20254;-73
2021/04/29 03:23:15;;;;;;;;;;;;;;;7.79;42.04;99867.91;1657578;84;20301;-73
2021/04/29 03:25:41;;;;;;;;;;;;;;;7.75;42.06;99869.68;1654178;85;20297;-73
2021/04/29 03:28:10;;;;;;;;;;;;;;;7.73;42.13;99872.72;1653970;84;20259;-73
2021/04/29 03:30:36;;;;;;;;;;;;;;;7.71;42.22;99876.19;1634775;86;20269;-73
2021/04/29 03:33:02;;;;;;;;;;;;;;;7.72;42.30;99871.02;1664241;85;20259;-73
2021/04/29 03:35:33;;;;;;;;;;;;;;;7.74;42.30;99882.13;1653816;84;20459;-73
2021/04/29 03:37:59;;;;;;;;;;;;;;;7.75;42.26;99879.13;1662613;85;20283;-73
2021/04/29 03:40:25;;;;;;;;;;;;;;;7.74;42.36;99871.84;1665311;84;20160;-75
2021/04/29 03:42:52;;;;;;;;;;;;;;;7.76;42.33;99873.10;1663411;85;20311;-75
2021/04/29 03:45:18;;;;;;;;;;;;;;;7.76;42.36;99875.67;1670664;84;20297;-75
2021/04/29 03:47:44;;;;;;;;;;;;;;;7.76;42.41;99873.95;1636546;86;20308;-75
2021/04/29 03:50:10;;;;;;;;;;;;;;;7.76;42.43;99876.96;1666369;84;20949;-75
2021/04/29 03:52:36;;;;;;;;;;;;;;;7.74;42.53;99877.42;1657005;84;20293;-74
2021/04/29 03:55:03;;;;;;;;;;;;;;;7.73;42.52;99870.58;1652296;85;20301;-74
2021/04/29 03:57:30;;;;;;;;;;;;;;;7.75;42.54;99866.26;1652392;85;20298;-73
2021/04/29 03:59:56;;;;;;;;;;;;;;;7.78;42.57;99864.48;1655146;85;20283;-73
2021/04/29 04:02:22;;;;;;;;;;;;;;;7.81;42.58;99864.40;1655065;85;20314;-73
2021/04/29 04:04:52;;;;;;;;;;;;;;;7.87;42.61;99868.59;1670371;85;20309;-73
2021/04/29 04:07:18;;;;;;;;;;;;;;;7.90;42.64;99861.67;1669077;85;20307;-73
2021/04/29 04:09:44;;;;;;;;;;;;;;;7.96;42.60;99865.86;1669947;85;20192;-73
2021/04/29 04:12:10;;;;;;;;;;;;;;;8.00;42.59;99859.78;1666859;85;20274;-73
2021/04/29 04:14:36;;;;;;;;;;;;;;;8.06;42.65;99866.12;1655681;85;20291;-72
2021/04/29 04:17:05;;;;;;;;;;;;;;;8.10;42.63;99852.31;1637916;86;20288;-77
2021/04/29 04:19:37;;;;;;;;;;;;;;;8.15;42.60;99855.66;1601815;88;20300;-77
2021/04/29 04:22:03;;;;;;;;;;;;;;;8.20;42.67;99848.70;1638713;86;20833;-75
2021/04/29 04:24:30;;;;;;;;;;;;;;;8.26;42.70;99852.45;1607738;87;20227;-75
2021/04/29 04:26:56;;;;;;;;;;;;;;;8.30;42.68;99853.23;1613120;87;20839;-73
2021/04/29 04:29:22;;;;;;;;;;;;;;;8.37;42.70;99847.53;1634522;86;20176;-74
2021/04/29 04:31:48;;;;;;;;;;;;;;;8.42;42.81;99851.72;1634291;86;20205;-73
2021/04/29 04:34:14;;;;;;;;;;;;;;;8.46;42.82;99852.50;1634713;86;20598;-72
2021/04/29 04:36:40;;;;;;;;;;;;;;;8.54;42.98;99850.19;1632375;86;20268;-72
2021/04/29 04:39:06;;;;;;;;;;;;;;;8.66;43.09;99849.53;1639109;86;20270;-72
2021/04/29 04:41:32;;;;;;;;;;;;;;;8.73;43.05;99849.82;1638223;86;20287;-73
2021/04/29 04:43:58;;;;;;;;;;;;;;;8.82;42.98;99847.05;1606944;87;20749;-72
2021/04/29 04:46:25;;;;;;;;;;;;;;;8.90;42.91;99843.84;1633939;86;20377;-72
2021/04/29 04:48:54;;;;;;;;;;;;;;;8.98;42.97;99842.39;1637286;86;20288;-72
2021/04/29 04:51:21;;;;;;;;;;;;;;;9.07;42.94;99838.31;1626597;86;38217;-72
2021/04/29 04:53:51;;;;;;;;;;;;;;;9.13;42.89;99840.31;1641989;85;20262;-72
2021/04/29 04:56:17;;;;;;;;;;;;;;;9.20;42.87;99836.72;1622630;88;20332;-73
2021/04/29 04:58:43;;;;;;;;;;;;;;;9.26;42.86;99830.58;1655293;85;20427;-71
2021/04/29 05:01:12;;;;;;;;;;;;;;;9.30;42.83;99828.33;1655974;85;20310;-72
2021/04/29 05:03:38;;;;;;;;;;;;;;;9.34;42.79;99821.36;1660660;85;20294;-71
2021/04/29 05:06:05;;;;;;;;;;;;;;;9.40;42.90;99825.06;1659643;85;20263;-71
2021/04/29 05:08:31;;;;;;;;;;;;;;;9.44;42.81;99815.07;1667697;85;20205;-71
2021/04/29 05:10:57;;;;;;;;;;;;;;;9.49;42.86;99814.52;1657938;85;20291;-72
2021/04/29 05:13:23;;;;;;;;;;;;;;;9.54;42.77;99809.65;1653710;85;21031;-72
2021/04/29 05:15:49;;;;;;;;;;;;;;;9.59;42.88;99805.67;1633669;86;20257;-72
2021/04/29 05:18:16;;;;;;;;;;;;;;;9.62;43.11;99800.43;1614087;86;20265;-72
2021/04/29 05:20:42;;;;;;;;;;;;;;;9.65;43.21;99800.80;1604767;87;20281;-72
2021/04/29 05:23:08;;;;;;;;;;;;;;;9.68;43.20;99796.41;1618058;87;20196;-72
2021/04/29 05:25:34;;;;;;;;;;;;;;;9.72;43.33;99790.28;1630196;86;20159;-72
2021/04/29 05:28:02;;;;;;;;;;;;;;;9.76;43.29;99788.47;1606517;87;20276;-71
2021/04/29 05:30:29;;;;;;;;;;;;;;;9.83;43.42;99789.55;1625693;87;20264;-71
2021/04/29 05:32:57;;;;;;;;;;;;;;;9.90;43.45;99782.47;1635586;87;20194;-72
2021/04/29 05:35:23;;;;;;;;;;;;;;;10.01;43.48;99787.34;1649718;85;20155;-72
2021/04/29 05:37:49;;;;;;;;;;;;;;;10.12;43.48;99790.05;1642888;86;20167;-72
2021/04/29 05:40:18;;;;;;;;;;;;;;;10.16;43.34;99789.52;1607743;87;20195;-72
2021/04/29 05:42:45;;;;;;;;;;;;;;;10.23;43.23;99791.08;1653758;85;20515;-72
2021/04/29 05:45:12;;;;;;;;;;;;;;;10.23;43.23;99794.51;1666561;85;20623;-72
2021/04/29 05:47:39;;;;;;;;;;;;;;;10.20;43.25;99799.76;1670432;85;20261;-72
2021/04/29 05:50:06;;;;;;;;;;;;;;;10.22;43.25;99804.88;1653229;86;20276;-72
2021/04/29 05:52:32;;;;;;;;;;;;;;;10.24;43.37;99797.94;1660175;85;20429;-72
2021/04/29 05:55:01;;;;;;;;;;;;;;;10.31;43.40;99790.87;1641202;86;20263;-72
2021/04/29 05:57:27;;;;;;;;;;;;;;;10.32;43.36;99796.44;1672575;83;20452;-73
2021/04/29 05:59:54;;;;;;;;;;;;;;;10.32;43.42;99797.28;1637284;86;20259;-73
2021/04/29 06:02:21;;;;;;;;;;;;;;;10.34;43.52;99796.80;1675118;84;20540;-72
2021/04/29 06:04:47;;;;;;;;;;;;;;;10.39;43.61;99796.67;1683985;84;20277;-72
2021/04/29 06:07:14;;;;;;;;;;;;;;;10.45;43.68;99800.34;1702046;83;20531;-72
2021/04/29 06:09:40;;;;;;;;;;;;;;;10.51;43.71;99793.26;1682551;84;20333;-72
2021/04/29 06:12:07;;;;;;;;;;;;;;;10.60;43.70;99794.73;1650895;86;20297;-72
2021/04/29 06:14:33;;;;;;;;;;;;;;;10.63;43.70;99792.05;1647655;86;20151;-72
2021/04/29 06:16:59;;;;;;;;;;;;;;;10.72;43.70;99792.23;1656890;86;20288;-73
2021/04/29 06:19:26;;;;;;;;;;;;;;;10.82;43.73;99793.66;1657251;86;20465;-72
2021/04/29 06:21:52;;;;;;;;;;;;;;;10.90;43.64;99798.16;1678630;84;20292;-72
2021/04/29 06:24:18;;;;;;;;;;;;;;;10.98;43.80;99793.56;1658925;86;20457;-72
2021/04/29 06:26:44;;;;;;;;;;;;;;;11.06;43.82;99784.27;1638916;86;20187;-72
2021/04/29 06:29:11;;;;;;;;;;;;;;;11.11;43.71;99787.11;1675266;84;20259;-72
2021/04/29 06:31:39;;;;;;;;;;;;;;;11.20;43.79;99789.86;1681803;84;20267;-73
2021/04/29 06:34:06;;;;;;;;;;;;;;;11.28;43.71;99783.99;1671933;84;20236;-73
2021/04/29 06:36:33;;;;;;;;;;;;;;;11.35;43.65;99785.94;1658156;86;20274;-73
2021/04/29 06:38:59;;;;;;;;;;;;;;;11.36;43.56;99775.53;1650187;86;20322;-73
2021/04/29 06:41:25;;;;;;;;;;;;;;;11.38;43.48;99777.63;1686687;84;20462;-73
2021/04/29 06:43:53;;;;;;;;;;;;;;;11.35;43.52;99778.17;1656213;86;20436;-73
2021/04/29 06:46:19;;;;;;;;;;;;;;;11.35;43.52;99769.96;1646943;86;20436;-72
2021/04/29 06:48:45;;;;;;;;;;;;;;;11.32;43.54;99769.21;1647467;86;20254;-73
2021/04/29 06:51:11;;;;;;;;;;;;;;;11.36;43.55;99765.18;1640922;86;20748;-72
2021/04/29 06:53:37;;;;;;;;;;;;;;;11.41;43.58;99762.45;1673104;84;20255;-73
2021/04/29 06:56:04;;;;;;;;;;;;;;;11.46;43.55;99753.59;1667475;84;20281;-73
2021/04/29 06:58:31;;;;;;;;;;;;;;;11.52;43.57;99748.22;1664179;85;20434;-73
2021/04/29 07:01:01;;;;;;;;;;;;;;;11.60;43.70;99744.08;1647915;86;20257;-72
2021/04/29 07:03:28;;;;;;;;;;;;;;;11.69;43.73;99741.63;1648871;86;20157;-73
2021/04/29 07:05:54;;;;;;;;;;;;;;;11.76;43.65;99749.13;1635756;87;20542;-73
2021/04/29 07:08:20;;;;;;;;;;;;;;;11.82;43.76;99748.95;1662883;85;20273;-72
2021/04/29 07:10:48;;;;;;;;;;;;;;;11.95;43.80;99751.95;1651007;86;20276;-73
2021/04/29 07:13:14;;;;;;;;;;;;;;;12.07;43.83;99750.64;1619801;87;20154;-73
2021/04/29 07:15:41;;;;;;;;;;;;;;;12.14;43.80;99746.48;1612129;87;20216;-73
2021/04/29 07:18:09;;;;;;;;;;;;;;;12.20;43.69;99743.67;1629460;87;20256;-73
2021/04/29 07:20:34;;;;;;;;;;;;;;;12.22;43.64;99744.91;1628468;87;20286;-73
2021/04/29 07:23:01;;;;;;;;;;;;;;;12.22;43.73;99749.64;1658394;85;20255;-73
2021/04/29 07:25:27;;;;;;;;;;;;;;;12.20;43.68;99750.15;1656288;86;20826;-73
2021/04/29 07:27:53;;;;;;;;;;;;;;;12.20;43.77;99753.19;1624114;87;20203;-72
2021/04/29 07:30:19;;;;;;;;;;;;;;;12.19;43.76;99747.16;1649531;86;20276;-73
2021/04/29 07:32:46;;;;;;;;;;;;;;;12.21;43.84;99746.66;1622237;87;20163;-73
2021/04/29 07:35:13;;;;;;;;;;;;;;;12.24;43.83;99743.95;1649450;86;20276;-73
2021/04/29 07:37:40;;;;;;;;;;;;;;;12.25;43.82;99740.46;1618459;87;20178;-73
2021/04/29 07:40:07;;;;;;;;;;;;;;;12.33;43.86;99745.36;1647623;86;20448;-73
2021/04/29 07:42:34;;;;;;;;;;;;;;;12.39;43.85;99747.73;1630639;87;20897;-73
2021/04/29 07:45:01;;;;;;;;;;;;;;;12.44;43.86;99748.41;1642108;86;20184;-73
2021/04/29 07:47:27;;;;;;;;;;;;;;;12.52;43.85;99748.09;1641580;86;20802;-73
2021/04/29 07:49:53;;;;;;;;;;;;;;;12.62;43.97;99747.29;1645260;86;20266;-73
2021/04/29 07:52:19;;;;;;;;;;;;;;;12.68;43.77;99754.84;1651678;86;20517;-73
2021/04/29 07:54:45;;;;;;;;;;;;;;;12.63;43.76;99749.83;1642326;86;20554;-73
2021/04/29 07:57:11;;;;;;;;;;;;;;;12.54;43.75;99751.02;1652986;83;20163;-73
2021/04/29 07:59:37;;;;;;;;;;;;;;;12.47;43.81;99756.07;1681739;84;20198;-73
2021/04/29 08:02:03;;;;;;;;;;;;;;;12.44;43.87;99759.23;1648411;86;20301;-74
2021/04/29 08:04:30;;;;;;;;;;;;;;;12.39;43.93;99765.88;1648913;86;20476;-74
2021/04/29 08:06:56;;;;;;;;;;;;;;;12.36;43.95;99762.10;1685614;84;20544;-74
2021/04/29 08:09:22;;;;;;;;;;;;;;;12.37;44.08;99754.72;1649489;86;20258;-74
2021/04/29 08:11:48;;;;;;;;;;;;;;;12.39;44.07;99759.39;1671423;84;20257;-74
2021/04/29 08:14:15;;;;;;;;;;;;;;;12.41;44.08;99755.00;1677674;84;20269;-74
2021/04/29 08:16:41;;;;;;;;;;;;;;;12.44;44.14;99750.16;1642301;86;20463;-73
2021/04/29 08:19:07;;;;;;;;;;;;;;;12.51;44.11;99757.61;1681765;84;20273;-74
2021/04/29 08:21:34;;;;;;;;;;;;;;;12.63;44.22;99752.42;1679868;84;20512;-74
2021/04/29 08:24:00;;;;;;;;;;;;;;;12.72;44.23;99756.41;1681586;84;20263;-74
2021/04/29 08:26:26;;;;;;;;;;;;;;;12.83;44.32;99755.55;1680042;84;20268;-74
2021/04/29 08:28:53;;;;;;;;;;;;;;;12.90;44.34;99753.95;1675457;84;20265;-74
2021/04/29 08:31:19;;;;;;;;;;;;;;;13.09;44.30;99755.34;1651160;86;20224;-74
2021/04/29 08:33:45;;;;;;;;;;;;;;;13.25;44.27;99761.64;1630457;86;20272;-74
2021/04/29 08:36:11;;;;;;;;;;;;;;;13.39;44.35;99757.19;1687610;84;20450;-74
2021/04/29 08:38:37;;;;;;;;;;;;;;;13.54;44.34;99751.78;1678876;84;20245;-74
2021/04/29 08:41:03;;;;;;;;;;;;;;;13.66;44.35;99755.16;1670786;84;20544;-74
2021/04/29 08:43:30;;;;;;;;;;;;;;;13.73;44.31;99757.05;1655791;86;20276;-74
2021/04/29 08:46:04;;;;;;;;;;;;;;;13.82;44.22;99757.95;1681995;84;20446;-74
2021/04/29 08:48:33;;;;;;;;;;;;;;;13.86;44.20;99762.11;1680173;84;20202;-74
2021/04/29 08:51:01;;;;;;;;;;;;;;;13.79;44.05;99758.93;1676967;84;20165;-74
2021/04/29 08:53:28;;;;;;;;;;;;;;;13.71;44.25;99760.16;1677906;84;20273;-73
2021/04/29 08:55:54;;;;;;;;;;;;;;;13.72;44.29;99760.55;1672407;84;20580;-73
2021/04/29 08:58:21;;;;;;;;;;;;;;;13.70;44.25;99758.47;1670717;84;20186;-74
2021/04/29 09:00:59;;;;;;;;;;;;;;;13.65;44.25;99765.62;1677594;84;20278;-74
2021/04/29 09:03:34;;;;;;;;;;;;;;;13.59;44.31;99764.12;1652979;86;20243;-74
2021/04/29 09:06:01;;;;;;;;;;;;;;;13.53;44.38;99765.22;1658786;85;20267;-74
2021/04/29 09:08:33;;;;;;;;;;;;;;;13.49;44.44;99763.69;1652229;86;20252;-75
2021/04/29 09:11:15;;;;;;;;;;;;;;;13.47;44.51;99765.95;1648924;86;20282;-74
2021/04/29 09:13:43;;;;;;;;;;;;;;;13.45;44.61;99763.88;1610862;87;20502;-74
2021/04/29 09:16:12;;;;;;;;;;;;;;;13.42;44.54;99772.64;1640133;86;20262;-74
2021/04/29 09:18:42;;;;;;;;;;;;;;;13.40;44.67;99768.41;1625634;86;20268;-74
2021/04/29 09:21:14;;;;;;;;;;;;;;;13.39;44.74;99768.02;1657012;86;20287;-74
2021/04/29 09:23:42;;;;;;;;;;;;;;;13.38;44.83;99760.69;1627752;87;20498;-74
2021/04/29 09:26:11;;;;;;;;;;;;;;;13.37;44.82;99759.45;1662868;85;20261;-74
2021/04/29 09:28:41;;;;;;;;;;;;;;;13.39;44.98;99753.29;1649698;85;20265;-74
2021/04/29 09:31:12;;;;;;;;;;;;;;;13.47;44.96;99745.18;1651586;86;20261;-74
2021/04/29 09:33:47;;;;;;;;;;;;;;;13.51;45.01;99733.75;1623308;87;20149;-74
2021/04/29 09:36:26;;;;;;;;;;;;;;;13.55;44.99;99729.64;1653109;86;20196;-74
2021/04/29 09:38:54;;;;;;;;;;;;;;;13.57;44.98;99723.08;1630859;87;20265;-74
2021/04/29 09:41:26;;;;;;;;;;;;;;;13.60;45.17;99726.84;1657293;85;20274;-74
2021/04/29 09:43:57;;;;;;;;;;;;;;;13.66;45.18;99730.94;1650412;85;20268;-73
2021/04/29 09:46:25;;;;;;;;;;;;;;;13.73;45.18;99731.06;1645212;86;20556;-74
2021/04/29 09:48:51;;;;;;;;;;;;;;;13.74;45.18;99728.40;1625501;87;20171;-74
2021/04/29 09:51:27;;;;;;;;;;;;;;;13.75;45.21;99729.24;1651865;85;20260;-73
2021/04/29 09:54:45;;;;;;;;;;;;;;;13.78;45.48;99736.45;1613060;87;20273;-75
2021/04/29 09:57:17;;;;;;;;;;;;;;;13.83;45.56;99729.76;1628101;87;20586;-74
2021/04/29 09:59:47;;;;;;;;;;;;;;;13.84;45.71;99721.89;1644988;87;20198;-74
2021/04/29 10:02:12;;;;;;;;;;;;;;;13.82;45.59;99721.57;1632535;87;20291;-74
2021/04/29 10:04:40;;;;;;;;;;;;;;;13.69;46.12;99716.06;1628452;87;20270;-74
2021/04/29 10:07:07;;;;;;;;;;;;;;;13.64;46.45;99715.41;1640476;87;20278;-74
2021/04/29 10:09:35;;;;;;;;;;;;;;;13.67;46.90;99716.58;1638540;87;20269;-74
2021/04/29 10:12:07;;;;;;;;;;;;;;;13.64;47.21;99715.41;1626000;87;20278;-74
2021/04/29 10:14:35;;;;;;;;;;;;;;;13.55;47.43;99714.05;1616960;87;20271;-74
2021/04/29 10:17:06;;;;;;;;;;;;;;;13.45;47.72;99711.94;1642992;85;20274;-74
2021/04/29 10:19:35;;;;;;;;;;;;;;;13.40;47.97;99703.50;1624030;87;20300;-75
2021/04/29 10:22:02;;;;;;;;;;;;;;;13.43;48.22;99710.70;1631052;87;20291;-75
2021/04/29 10:24:28;;;;;;;;;;;;;;;13.45;48.14;99709.34;1663080;85;20236;-74
2021/04/29 10:27:04;;;;;;;;;;;;;;;13.40;48.59;99709.98;1626463;87;20300;-74
2021/04/29 10:29:31;;;;;;;;;;;;;;;13.44;48.79;99711.09;1650510;85;20276;-74
2021/04/29 10:31:59;;;;;;;;;;;;;;;13.46;48.83;99708.43;1664958;85;20295;-74
2021/04/29 10:34:39;;;;;;;;;;;;;;;13.45;49.16;99706.29;1651220;85;20264;-75
2021/04/29 10:37:20;;;;;;;;;;;;;;;13.48;49.21;99710.05;1517312;85;10006825;-74
2021/04/29 10:39:58;;;;;;;;;;;;;;;13.61;49.46;99711.64;1607333;85;20313;-75
2021/04/29 10:42:27;;;;;;;;;;;;;;;13.72;49.27;99707.30;1636978;84;20279;-75
2021/04/29 10:45:00;;;;;;;;;;;;;;;13.81;49.45;99699.94;1644956;85;20269;-75
2021/04/29 10:47:29;;;;;;;;;;;;;;;13.88;49.45;99696.16;1661141;85;20254;-75
2021/04/29 10:50:14;;;;;;;;;;;;;;;13.99;49.56;99702.19;1670358;85;20289;-75
2021/04/29 10:52:55;;;;;;;;;;;;;;;14.04;49.43;99696.30;1660083;85;20262;-75
2021/04/29 10:55:28;;;;;;;;;;;;;;;14.14;49.75;99695.42;1664729;85;20263;-74
2021/04/29 10:57:55;;;;;;;;;;;;;;;14.22;49.68;99693.33;1660550;85;20253;-74
2021/04/29 11:00:22;;;;;;;;;;;;;;;14.28;49.76;99687.00;1645812;86;20269;-74
2021/04/29 11:03:02;;;;;;;;;;;;;;;14.26;49.57;99688.37;1651928;86;20205;-75
2021/04/29 11:05:31;;;;;;;;;;;;;;;14.25;49.88;99681.03;1655903;86;20284;-74
2021/04/29 11:08:12;;;;;;;;;;;;;;;14.23;49.91;99683.31;1632443;86;20305;-75
2021/04/29 11:10:39;;;;;;;;;;;;;;;14.27;49.98;99685.31;1641763;86;20163;-75
2021/04/29 11:13:08;;;;;;;;;;;;;;;14.30;50.17;99684.72;1646228;86;20176;-75
2021/04/29 11:15:40;;;;;;;;;;;;;;;14.33;50.36;99678.53;1660802;86;20162;-75
2021/04/29 11:18:18;;;;;;;;;;;;;;;14.38;50.38;99680.01;1646168;84;521436;-75
2021/04/29 11:20:59;;;;;;;;;;;;;;;14.46;50.47;99675.78;1650294;86;20273;-74
2021/04/29 11:23:40;;;;;;;;;;;;;;;14.46;50.12;99671.42;1617934;87;20269;-76
2021/04/29 11:26:19;;;;;;;;;;;;;;;14.50;50.43;99663.02;1645481;86;20561;-76
2021/04/29 11:28:46;;;;;;;;;;;;;;;14.55;50.34;99661.89;1593450;88;20219;-74
2021/04/29 11:31:12;;;;;;;;;;;;;;;14.64;50.60;99663.64;1592248;88;20766;-75
2021/04/29 11:33:44;;;;;;;;;;;;;;;14.76;50.73;99659.15;1589171;88;20538;-74
2021/04/29 11:36:17;;;;;;;;;;;;;;;14.88;50.71;99652.89;1587893;88;20469;-74
2021/04/29 11:38:59;;;;;;;;;;;;;;;14.99;50.75;99653.66;1637614;86;20259;-75
2021/04/29 11:41:27;;;;;;;;;;;;;;;15.13;50.74;99649.05;1638812;86;20260;-74
2021/04/29 11:44:04;;;;;;;;;;;;;;;15.29;50.85;99644.75;1652163;86;20251;-74
2021/04/29 11:46:32;;;;;;;;;;;;;;;15.42;50.37;99638.46;1623751;87;20294;-77
2021/04/29 11:49:01;;;;;;;;;;;;;;;15.48;50.59;99628.56;1635559;86;20276;-74
2021/04/29 11:51:29;;;;;;;;;;;;;;;15.63;50.59;99626.93;1635993;86;20255;-74
2021/04/29 11:54:06;;;;;;;;;;;;;;;15.78;50.46;99624.82;1653265;86;20257;-74
2021/04/29 11:56:48;;;;;;;;;;;;;;;15.92;50.70;99625.85;1653373;85;20285;-74
2021/04/29 11:59:23;;;;;;;;;;;;;;;16.12;50.36;99621.67;1656318;86;20259;-74
2021/04/29 12:01:56;;;;;;;;;;;;;;;16.29;50.43;99622.90;1630890;87;20580;-74
2021/04/29 12:04:24;;;;;;;;;;;;;;;16.50;50.55;99621.71;1620404;85;20291;-73
2021/04/29 12:06:57;;;;;;;;;;;;;;;16.70;50.12;99619.75;1582438;87;20257;-73
2021/04/29 12:09:24;;;;;;;;;;;;;;;16.82;50.06;99625.11;1631637;87;20271;-73
2021/04/29 12:11:51;;;;;;;;;;;;;;;16.92;49.89;99634.56;1627999;87;20259;-73
2021/04/29 12:14:22;;;;;;;;;;;;;;;17.01;49.88;99630.58;1624602;87;20288;-75
2021/04/29 12:16:49;;;;;;;;;;;;;;;17.08;49.87;99637.13;1616834;87;20297;-75
2021/04/29 12:19:15;;;;;;;;;;;;;;;17.11;49.71;99643.02;1626175;87;20302;-74
2021/04/29 12:21:43;;;;;;;;;;;;;;;17.11;49.62;99652.63;1630505;87;20198;-74
2021/04/29 12:24:13;;;;;;;;;;;;;;;17.07;49.61;99654.58;1642766;86;20262;-75
2021/04/29 12:26:40;;;;;;;;;;;;;;;17.01;49.48;99648.87;1607743;87;20286;-75
2021/04/29 12:29:09;;;;;;;;;;;;;;;16.96;49.60;99653.52;1614536;87;20296;-75
2021/04/29 12:31:36;;;;;;;;;;;;;;;16.97;49.60;99656.50;1638592;86;20271;-75
2021/04/29 12:34:06;;;;;;;;;;;;;;;16.91;49.62;99648.55;1614677;87;20283;-75
2021/04/29 12:36:37;;;;;;;;;;;;;;;16.83;49.71;99660.73;1641876;86;20283;-75
2021/04/29 12:39:14;;;;;;;;;;;;;;;16.74;49.63;99659.11;1611504;87;20752;-75
2021/04/29 12:41:40;;;;;;;;;;;;;;;16.65;49.59;99659.63;1611606;87;20267;-75
2021/04/29 12:44:06;;;;;;;;;;;;;;;16.57;49.65;99651.38;1615464;87;20215;-74
2021/04/29 12:46:37;;;;;;;;;;;;;;;16.53;49.78;99657.23;1612037;87;20788;-74
2021/04/29 12:49:14;;;;;;;;;;;;;;;16.47;49.54;99649.28;1631120;87;20261;-74
2021/04/29 12:51:40;;;;;;;;;;;;;;;16.37;49.71;99649.41;1617026;87;20253;-73
2021/04/29 12:54:13;;;;;;;;;;;;;;;16.35;49.72;99653.03;1615182;87;20280;-73
2021/04/29 12:56:38;;;;;;;;;;;;;;;16.30;49.65;99655.89;1613897;87;20531;-73